createdAt,value
2019-02-27T00:00:11.993Z,4.10
2019-02-27T00:02:40.413Z,4.00
2019-02-27T00:05:09.075Z,4.10
2019-02-27T00:07:37.498Z,4.00
2019-02-27T00:10:07.343Z,4.00
2019-02-27T00:12:35.769Z,4.00
2019-02-27T00:15:05.965Z,4.10
2019-02-27T00:17:34.414Z,3.90
2019-02-27T00:20:05.019Z,3.90
2019-02-27T00:22:32.949Z,3.90
2019-02-27T00:25:03.467Z,3.80
2019-02-27T00:27:31.555Z,3.80
2019-02-27T00:30:04.575Z,3.70
2019-02-27T00:32:30.111Z,3.70
2019-02-27T00:34:58.550Z,3.70
2019-02-27T00:37:26.999Z,3.70
2019-02-27T00:39:55.410Z,3.70
2019-02-27T00:42:33.102Z,3.70
2019-02-27T00:44:53.941Z,3.60
2019-02-27T00:47:22.368Z,3.60
2019-02-27T00:49:50.761Z,3.60
2019-02-27T00:52:19.187Z,3.60
2019-02-27T00:54:47.594Z,3.50
2019-02-27T00:57:20.512Z,3.50
2019-02-27T00:59:46.133Z,3.50
2019-02-27T01:02:14.540Z,3.50
2019-02-27T01:04:42.957Z,3.40
2019-02-27T01:07:11.359Z,3.40
2019-02-27T01:09:40.060Z,3.40
2019-02-27T01:12:08.623Z,3.40
2019-02-27T01:14:37.635Z,3.40
2019-02-27T01:17:06.127Z,3.40
2019-02-27T01:19:38.289Z,3.30
2019-02-27T01:22:04.739Z,3.30
2019-02-27T01:24:33.131Z,3.30
2019-02-27T01:27:04.291Z,3.30
2019-02-27T01:29:31.682Z,3.30
2019-02-27T01:32:00.089Z,3.20
2019-02-27T01:34:28.510Z,3.30
2019-02-27T01:36:58.045Z,3.20
2019-02-27T01:39:27.082Z,3.20
2019-02-27T01:41:57.928Z,3.20
2019-02-27T01:44:25.629Z,3.20
2019-02-27T01:46:54.758Z,3.20
2019-02-27T01:49:23.231Z,3.20
2019-02-27T01:51:51.658Z,3.20
2019-02-27T01:54:20.047Z,3.10
2019-02-27T01:56:48.465Z,3.10
2019-02-27T01:59:17.830Z,3.00
2019-02-27T02:01:46.250Z,3.10
2019-02-27T02:04:14.648Z,3.00
2019-02-27T02:06:43.055Z,3.00
2019-02-27T02:09:35.076Z,3.00
2019-02-27T02:12:18.984Z,3.00
2019-02-27T02:14:54.356Z,3.00
2019-02-27T02:17:59.843Z,2.90
2019-02-27T02:20:43.591Z,2.90
2019-02-27T02:23:20.845Z,2.80
2019-02-27T02:25:54.887Z,2.70
2019-02-27T02:28:41.222Z,2.70
2019-02-27T02:31:24.350Z,2.70
2019-02-27T02:33:58.340Z,2.80
2019-02-27T02:36:38.822Z,2.70
2019-02-27T02:39:31.369Z,2.80
2019-02-27T02:42:14.812Z,2.80
2019-02-27T02:44:57.219Z,2.80
2019-02-27T02:47:30.806Z,2.70
2019-02-27T02:50:38.033Z,2.70
2019-02-27T02:53:24.731Z,2.70
2019-02-27T02:56:03.659Z,2.60
2019-02-27T02:58:48.374Z,2.50
2019-02-27T03:01:29.397Z,2.50
2019-02-27T03:04:12.578Z,2.40
2019-02-27T03:06:45.714Z,2.40
2019-02-27T03:09:32.028Z,2.40
2019-02-27T03:12:18.430Z,2.40
2019-02-27T03:15:07.802Z,2.40
2019-02-27T03:17:55.527Z,2.50
2019-02-27T03:20:58.756Z,2.40
2019-02-27T03:23:50.816Z,2.40
2019-02-27T03:26:39.444Z,2.30
2019-02-27T03:29:36.641Z,2.30
2019-02-27T03:32:17.199Z,2.30
2019-02-27T03:35:13.625Z,2.20
2019-02-27T03:37:57.153Z,2.20
2019-02-27T03:40:56.081Z,2.20
2019-02-27T03:43:36.413Z,2.20
2019-02-27T03:46:24.388Z,2.20
2019-02-27T03:49:12.530Z,2.20
2019-02-27T03:51:59.682Z,2.10
2019-02-27T03:54:57.024Z,2.10
2019-02-27T03:57:32.238Z,2.00
2019-02-27T04:00:19.259Z,2.00
2019-02-27T04:02:59.558Z,2.00
2019-02-27T04:05:41.909Z,2.10
2019-02-27T04:08:32.418Z,2.00
2019-02-27T04:11:05.645Z,2.00
2019-02-27T04:13:31.019Z,2.00
2019-02-27T04:15:59.431Z,2.00
2019-02-27T04:18:28.437Z,2.00
2019-02-27T04:20:57.306Z,2.10
2019-02-27T04:23:25.721Z,2.00
2019-02-27T04:25:54.132Z,2.00
2019-02-27T04:28:22.531Z,2.00
2019-02-27T04:30:51.956Z,2.00
2019-02-27T04:33:23.429Z,2.00
2019-02-27T04:35:50.683Z,2.00
2019-02-27T04:38:19.100Z,1.90
2019-02-27T04:40:47.527Z,1.80
2019-02-27T04:43:15.923Z,1.80
2019-02-27T04:45:46.696Z,1.80
2019-02-27T04:48:14.473Z,1.70
2019-02-27T04:50:44.168Z,1.70
2019-02-27T04:53:13.196Z,1.70
2019-02-27T04:55:41.659Z,1.70
2019-02-27T04:58:10.101Z,1.80
2019-02-27T05:00:38.557Z,1.80
2019-02-27T05:03:06.996Z,1.80
2019-02-27T05:05:35.402Z,1.80
2019-02-27T05:08:03.798Z,1.70
2019-02-27T05:10:33.820Z,1.70
2019-02-27T05:13:02.319Z,1.80
2019-02-27T05:15:30.740Z,1.80
2019-02-27T05:17:59.162Z,1.70
2019-02-27T05:20:27.583Z,1.70
2019-02-27T05:23:00.141Z,1.70
2019-02-27T05:25:26.131Z,1.70
2019-02-27T05:27:54.566Z,1.60
2019-02-27T05:30:22.966Z,1.60
2019-02-27T05:32:51.395Z,1.60
2019-02-27T05:35:23.366Z,1.60
2019-02-27T05:37:49.930Z,1.70
2019-02-27T05:40:18.317Z,1.70
2019-02-27T05:42:46.739Z,1.70
2019-02-27T05:45:15.150Z,1.70
2019-02-27T05:47:45.791Z,1.60
2019-02-27T05:50:13.860Z,1.60
2019-02-27T05:52:42.286Z,1.60
2019-02-27T05:55:10.845Z,1.60
2019-02-27T05:57:39.270Z,1.50
2019-02-27T06:00:15.957Z,1.50
2019-02-27T06:02:44.976Z,1.50
2019-02-27T06:05:14.075Z,1.50
2019-02-27T06:07:42.491Z,1.50
2019-02-27T06:10:20.076Z,1.60
2019-02-27T06:12:47.737Z,1.60
2019-02-27T06:15:17.480Z,1.60
2019-02-27T06:17:48.869Z,1.70
2019-02-27T06:20:16.106Z,1.70
2019-02-27T06:22:44.500Z,1.70
2019-02-27T06:25:21.504Z,1.70
2019-02-27T06:27:45.839Z,1.70
2019-02-27T06:30:16.863Z,1.60
2019-02-27T06:32:45.281Z,1.70
2019-02-27T06:35:14.747Z,1.70
2019-02-27T06:37:43.138Z,1.70
2019-02-27T06:40:18.564Z,1.70
2019-02-27T06:42:47.136Z,1.80
2019-02-27T06:45:16.778Z,1.70
2019-02-27T06:47:45.186Z,1.70
2019-02-27T06:50:17.112Z,1.80
2019-02-27T06:52:45.529Z,1.90
2019-02-27T06:55:14.789Z,2.00
2019-02-27T06:57:43.265Z,2.00
2019-02-27T07:00:22.599Z,2.10
2019-02-27T07:02:55.208Z,2.10
2019-02-27T07:05:21.144Z,2.30
2019-02-27T07:07:49.537Z,2.30
2019-02-27T07:10:20.008Z,2.40
2019-02-27T07:12:48.731Z,2.30
2019-02-27T07:15:21.233Z,2.40
2019-02-27T07:17:49.646Z,2.40
2019-02-27T07:20:18.059Z,2.40
2019-02-27T07:22:46.755Z,2.60
2019-02-27T07:25:16.663Z,2.60
2019-02-27T07:27:45.055Z,2.80
2019-02-27T07:30:17.955Z,2.90
2019-02-27T07:32:46.432Z,3.00
2019-02-27T07:35:15.684Z,3.10
2019-02-27T07:37:47.042Z,3.20
2019-02-27T07:40:18.749Z,3.30
2019-02-27T07:42:47.223Z,3.40
2019-02-27T07:45:17.469Z,3.60
2019-02-27T07:47:45.959Z,3.70
2019-02-27T07:50:16.288Z,3.80
2019-02-27T07:52:44.673Z,3.90
2019-02-27T07:55:21.683Z,4.10
2019-02-27T07:57:45.326Z,4.20
2019-02-27T08:00:16.558Z,4.50
2019-02-27T08:02:44.963Z,4.90
2019-02-27T08:05:13.505Z,5.30
2019-02-27T08:07:41.925Z,5.50
2019-02-27T08:10:16.304Z,5.70
2019-02-27T08:12:45.145Z,5.80
2019-02-27T08:15:15.909Z,5.90
2019-02-27T08:17:44.328Z,6.00
2019-02-27T08:20:14.383Z,6.20
2019-02-27T08:22:42.799Z,6.20
2019-02-27T08:25:14.033Z,6.30
2019-02-27T08:27:43.798Z,6.40
2019-02-27T08:30:18.313Z,6.60
2019-02-27T08:32:46.773Z,6.70
2019-02-27T08:35:16.661Z,6.70
2019-02-27T08:37:45.404Z,6.80
2019-02-27T08:40:14.652Z,7.00
2019-02-27T08:42:43.118Z,7.20
2019-02-27T08:45:19.591Z,7.30
2019-02-27T08:47:46.453Z,7.30
2019-02-27T08:50:20.319Z,7.40
2019-02-27T08:52:51.451Z,7.50
2019-02-27T08:55:22.429Z,7.70
2019-02-27T08:57:55.601Z,7.90
2019-02-27T09:00:25.209Z,8.00
2019-02-27T09:02:55.524Z,8.20
2019-02-27T09:05:23.861Z,8.50
2019-02-27T09:07:52.270Z,8.70
2019-02-27T09:10:25.901Z,8.90
2019-02-27T09:12:53.087Z,9.00
2019-02-27T09:15:21.575Z,9.20
2019-02-27T09:17:49.980Z,9.30
2019-02-27T09:20:20.649Z,9.40
2019-02-27T09:22:49.082Z,9.50
2019-02-27T09:25:17.575Z,9.70
2019-02-27T09:27:45.975Z,9.60
2019-02-27T09:30:18.483Z,9.80
2019-02-27T09:32:46.965Z,10.10
2019-02-27T09:35:15.518Z,10.20
2019-02-27T09:37:43.992Z,10.30
2019-02-27T09:40:21.231Z,10.30
2019-02-27T09:42:50.180Z,10.50
2019-02-27T09:45:34.840Z,10.60
2019-02-27T09:48:03.980Z,10.80
2019-02-27T09:50:37.963Z,11.00
2019-02-27T09:53:06.522Z,11.10
2019-02-27T09:55:35.021Z,11.30
2019-02-27T09:58:03.945Z,11.40
2019-02-27T10:00:37.637Z,11.40
2019-02-27T10:03:06.314Z,11.40
2019-02-27T10:05:36.686Z,11.50
2019-02-27T10:08:07.511Z,11.80
2019-02-27T10:10:36.232Z,12.00
2019-02-27T10:13:04.774Z,12.00
2019-02-27T10:15:34.500Z,12.10
2019-02-27T10:18:02.963Z,12.40
2019-02-27T10:20:31.381Z,12.70
2019-02-27T10:22:59.804Z,12.90
2019-02-27T10:25:28.191Z,13.20
2019-02-27T10:27:56.608Z,13.00
2019-02-27T10:30:25.079Z,13.00
2019-02-27T10:32:53.489Z,13.20
2019-02-27T10:35:23.023Z,13.30
2019-02-27T10:37:54.219Z,13.60
2019-02-27T10:40:23.910Z,13.60
2019-02-27T10:42:52.323Z,13.60
2019-02-27T10:45:20.776Z,13.70
2019-02-27T10:47:49.191Z,13.90
2019-02-27T10:50:17.659Z,13.90
2019-02-27T10:52:46.086Z,14.00
2019-02-27T10:55:18.784Z,14.10
2019-02-27T10:57:47.193Z,14.30
2019-02-27T11:00:26.153Z,14.50
2019-02-27T11:02:54.585Z,14.80
2019-02-27T11:05:23.547Z,15.10
2019-02-27T11:07:53.046Z,15.10
2019-02-27T11:10:22.205Z,15.20
2019-02-27T11:12:50.622Z,15.40
2019-02-27T11:15:23.084Z,15.40
2019-02-27T11:17:51.577Z,15.40
2019-02-27T11:20:21.190Z,15.50
2019-02-27T11:22:50.641Z,15.90
2019-02-27T11:25:22.508Z,16.30
2019-02-27T11:27:51.677Z,16.40
2019-02-27T11:30:35.698Z,16.70
2019-02-27T11:33:02.249Z,16.80
2019-02-27T11:35:30.715Z,17.10
2019-02-27T11:37:59.137Z,17.00
2019-02-27T11:40:28.285Z,17.10
2019-02-27T11:42:56.944Z,17.10
2019-02-27T11:45:25.654Z,17.40
2019-02-27T11:47:54.140Z,17.40
2019-02-27T11:50:22.542Z,17.50
2019-02-27T11:52:51.309Z,17.70
2019-02-27T11:55:21.255Z,17.90
2019-02-27T11:57:49.848Z,18.10
2019-02-27T12:00:24.244Z,18.40
2019-02-27T12:02:52.667Z,18.60
2019-02-27T12:05:21.068Z,18.60
2019-02-27T12:07:51.246Z,18.80
2019-02-27T12:10:24.829Z,18.80
2019-02-27T12:12:53.332Z,18.90
2019-02-27T12:15:21.915Z,19.00
2019-02-27T12:17:50.349Z,18.80
2019-02-27T12:20:20.983Z,18.70
2019-02-27T12:22:49.467Z,18.70
2019-02-27T12:25:19.705Z,18.70
2019-02-27T12:27:50.068Z,18.90
2019-02-27T12:30:20.525Z,19.20
2019-02-27T12:32:49.083Z,19.40
2019-02-27T12:35:19.633Z,19.50
2019-02-27T12:37:48.106Z,19.50
2019-02-27T12:40:24.055Z,19.50
2019-02-27T12:42:49.837Z,19.70
2019-02-27T12:45:20.211Z,19.90
2019-02-27T12:47:48.824Z,20.00
2019-02-27T12:50:21.431Z,20.10
2019-02-27T12:52:50.511Z,20.20
2019-02-27T12:55:20.457Z,20.30
2019-02-27T12:57:52.458Z,20.30
2019-02-27T13:00:35.966Z,20.30
2019-02-27T13:03:08.458Z,20.40
2019-02-27T13:05:34.622Z,20.50
2019-02-27T13:08:03.048Z,20.50
2019-02-27T13:10:34.019Z,20.50
2019-02-27T13:13:01.589Z,20.60
2019-02-27T13:15:30.560Z,20.80
2019-02-27T13:17:59.108Z,20.90
2019-02-27T13:20:31.944Z,21.00
2019-02-27T13:23:03.878Z,20.90
2019-02-27T13:25:30.561Z,20.90
2019-02-27T13:27:59.026Z,20.90
2019-02-27T13:30:28.193Z,21.00
2019-02-27T13:33:00.618Z,21.10
2019-02-27T13:35:28.407Z,21.10
2019-02-27T13:37:56.989Z,21.20
2019-02-27T13:40:26.646Z,21.10
2019-02-27T13:42:55.115Z,21.20
2019-02-27T13:45:28.131Z,21.20
2019-02-27T13:47:58.980Z,21.20
2019-02-27T13:50:27.746Z,21.30
2019-02-27T13:52:56.153Z,21.20
2019-02-27T13:55:24.641Z,21.20
2019-02-27T13:57:53.035Z,21.20
2019-02-27T14:00:26.649Z,21.20
2019-02-27T14:02:55.228Z,21.50
2019-02-27T14:05:23.641Z,21.50
2019-02-27T14:07:57.209Z,21.40
2019-02-27T14:10:25.129Z,21.10
2019-02-27T14:12:53.533Z,21.00
2019-02-27T14:15:26.738Z,21.10
2019-02-27T14:17:53.103Z,21.10
2019-02-27T14:20:22.878Z,21.00
2019-02-27T14:22:51.714Z,21.00
2019-02-27T14:25:28.545Z,20.90
2019-02-27T14:27:55.655Z,21.00
2019-02-27T14:30:31.051Z,21.10
2019-02-27T14:32:59.447Z,21.00
2019-02-27T14:35:27.869Z,21.00
2019-02-27T14:37:56.251Z,20.80
2019-02-27T14:40:24.719Z,20.60
2019-02-27T14:42:54.793Z,20.60
2019-02-27T14:45:24.807Z,20.70
2019-02-27T14:47:53.199Z,20.70
2019-02-27T14:50:25.168Z,20.70
2019-02-27T14:52:53.579Z,20.60
2019-02-27T14:55:22.737Z,20.50
2019-02-27T14:57:51.554Z,20.40
2019-02-27T15:00:28.478Z,20.50
2019-02-27T15:02:57.128Z,20.50
2019-02-27T15:05:25.615Z,20.60
2019-02-27T15:07:54.885Z,20.60
2019-02-27T15:10:24.372Z,20.60
2019-02-27T15:12:55.100Z,20.70
2019-02-27T15:15:32.961Z,20.60
2019-02-27T15:18:01.409Z,20.60
2019-02-27T15:20:30.677Z,20.60
2019-02-27T15:22:59.072Z,20.50
2019-02-27T15:25:27.915Z,20.60
2019-02-27T15:27:58.985Z,20.60
2019-02-27T15:30:33.623Z,20.60
2019-02-27T15:33:05.091Z,20.70
2019-02-27T15:35:32.159Z,20.70
2019-02-27T15:38:00.545Z,20.60
2019-02-27T15:40:30.240Z,20.50
2019-02-27T15:42:58.912Z,20.40
2019-02-27T15:45:28.262Z,20.30
2019-02-27T15:47:57.024Z,20.30
2019-02-27T15:50:30.019Z,20.20
2019-02-27T15:52:58.405Z,20.10
2019-02-27T15:55:26.806Z,20.00
2019-02-27T15:57:55.227Z,19.80
2019-02-27T16:00:25.299Z,19.80
2019-02-27T16:02:53.712Z,19.70
2019-02-27T16:05:22.349Z,19.60
2019-02-27T16:07:51.231Z,19.60
2019-02-27T16:10:24.777Z,19.50
2019-02-27T16:12:53.185Z,19.40
2019-02-27T16:15:22.636Z,19.30
2019-02-27T16:17:51.056Z,19.20
2019-02-27T16:20:22.523Z,19.00
2019-02-27T16:22:50.956Z,18.90
2019-02-27T16:25:26.703Z,18.70
2019-02-27T16:27:56.274Z,18.60
2019-02-27T16:30:34.543Z,18.40
2019-02-27T16:33:03.043Z,18.10
2019-02-27T16:35:31.493Z,17.80
2019-02-27T16:37:59.906Z,17.70
2019-02-27T16:40:29.454Z,17.50
2019-02-27T16:42:57.952Z,17.20
2019-02-27T16:45:33.858Z,16.90
2019-02-27T16:48:01.364Z,16.70
2019-02-27T16:50:29.763Z,16.30
2019-02-27T16:53:00.202Z,15.90
2019-02-27T16:55:29.080Z,15.60
2019-02-27T16:57:57.891Z,15.30
2019-02-27T17:00:28.601Z,15.00
2019-02-27T17:02:57.212Z,14.80
2019-02-27T17:05:25.717Z,14.60
2019-02-27T17:07:54.190Z,14.40
2019-02-27T17:10:36.874Z,14.30
2019-02-27T17:13:05.437Z,14.00
2019-02-27T17:15:35.809Z,13.80
2019-02-27T17:18:04.064Z,13.60
2019-02-27T17:20:32.456Z,13.50
2019-02-27T17:23:00.884Z,13.30
2019-02-27T17:25:30.244Z,13.10
2019-02-27T17:27:58.882Z,12.90
2019-02-27T17:30:38.026Z,12.90
2019-02-27T17:33:06.775Z,12.90
2019-02-27T17:35:35.146Z,12.90
2019-02-27T17:38:03.554Z,12.70
2019-02-27T17:40:36.661Z,12.40
2019-02-27T17:43:02.079Z,12.30
2019-02-27T17:45:30.571Z,12.10
2019-02-27T17:47:58.969Z,11.90
2019-02-27T17:50:31.234Z,11.80
2019-02-27T17:52:57.604Z,11.70
2019-02-27T17:55:26.020Z,11.60
2019-02-27T17:57:57.709Z,11.40
2019-02-27T18:00:37.878Z,11.30
2019-02-27T18:03:06.301Z,11.20
2019-02-27T18:05:35.111Z,11.10
2019-02-27T18:08:03.600Z,11.10
2019-02-27T18:10:37.172Z,11.00
2019-02-27T18:13:02.147Z,10.90
2019-02-27T18:15:30.531Z,10.90
2019-02-27T18:17:58.937Z,10.90
2019-02-27T18:20:27.400Z,10.80
2019-02-27T18:22:55.844Z,10.70
2019-02-27T18:25:24.310Z,10.60
2019-02-27T18:27:52.723Z,10.60
2019-02-27T18:30:22.467Z,10.40
2019-02-27T18:32:50.888Z,10.30
2019-02-27T18:35:20.141Z,10.30
2019-02-27T18:37:53.235Z,10.20
2019-02-27T18:40:19.833Z,10.10
2019-02-27T18:42:48.333Z,10.10
2019-02-27T18:45:19.036Z,10.10
2019-02-27T18:47:47.496Z,9.90
2019-02-27T18:50:16.373Z,9.90
2019-02-27T18:52:44.765Z,9.80
2019-02-27T18:55:15.086Z,9.70
2019-02-27T18:57:47.219Z,9.70
2019-02-27T19:00:24.678Z,9.60
2019-02-27T19:03:01.531Z,9.60
2019-02-27T19:05:29.979Z,9.40
2019-02-27T19:07:58.477Z,9.30
2019-02-27T19:10:27.213Z,9.10
2019-02-27T19:12:55.705Z,9.00
2019-02-27T19:15:25.732Z,9.10
2019-02-27T19:17:54.500Z,9.00
2019-02-27T19:20:25.908Z,9.00
2019-02-27T19:22:54.377Z,9.00
2019-02-27T19:25:22.848Z,8.90
2019-02-27T19:27:51.330Z,8.90
2019-02-27T19:30:20.067Z,8.80
2019-02-27T19:32:49.131Z,8.70
2019-02-27T19:35:20.919Z,8.70
2019-02-27T19:37:49.163Z,8.70
2019-02-27T19:40:19.486Z,8.60
2019-02-27T19:42:55.897Z,8.50
2019-02-27T19:45:24.448Z,8.50
2019-02-27T19:47:55.697Z,8.40
2019-02-27T19:50:23.135Z,8.30
2019-02-27T19:52:51.631Z,8.10
2019-02-27T19:55:20.123Z,8.10
2019-02-27T19:57:48.581Z,8.00
2019-02-27T20:00:33.743Z,8.00
2019-02-27T20:03:01.105Z,8.10
2019-02-27T20:05:28.345Z,8.00
2019-02-27T20:07:56.909Z,7.80
2019-02-27T20:10:29.109Z,7.70
2019-02-27T20:12:55.680Z,7.70
2019-02-27T20:15:25.425Z,7.70
2019-02-27T20:17:53.986Z,7.60
2019-02-27T20:20:23.121Z,7.60
2019-02-27T20:22:53.551Z,7.60
2019-02-27T20:25:24.889Z,7.60
2019-02-27T20:27:53.288Z,7.60
2019-02-27T20:30:23.023Z,7.50
2019-02-27T20:32:51.508Z,7.40
2019-02-27T20:35:20.584Z,7.30
2019-02-27T20:37:50.021Z,7.30
2019-02-27T20:40:20.624Z,7.30
2019-02-27T20:42:50.376Z,7.20
2019-02-27T20:45:20.547Z,7.10
2019-02-27T20:47:49.030Z,7.10
2019-02-27T20:50:34.190Z,7.00
2019-02-27T20:52:53.563Z,6.90
2019-02-27T20:55:22.019Z,7.00
2019-02-27T20:57:51.672Z,6.90
2019-02-27T21:00:20.516Z,6.80
2019-02-27T21:02:50.441Z,6.70
2019-02-27T21:05:19.592Z,6.70
2019-02-27T21:07:48.067Z,6.60
2019-02-27T21:10:21.949Z,6.60
2019-02-27T21:12:53.942Z,6.50
2019-02-27T21:15:20.609Z,6.50
2019-02-27T21:17:49.029Z,6.50
2019-02-27T21:20:17.486Z,6.40
2019-02-27T21:22:45.912Z,6.40
2019-02-27T21:25:14.882Z,6.30
2019-02-27T21:27:44.322Z,6.30
2019-02-27T21:30:20.021Z,6.30
2019-02-27T21:32:48.499Z,6.30
2019-02-27T21:35:16.984Z,6.20
2019-02-27T21:37:45.834Z,6.20
2019-02-27T21:40:15.983Z,6.20
2019-02-27T21:42:44.407Z,6.10
2019-02-27T21:45:17.971Z,6.10
2019-02-27T21:47:51.325Z,6.10
2019-02-27T21:50:19.102Z,6.00
2019-02-27T21:52:47.519Z,5.90
2019-02-27T21:55:16.047Z,5.80
2019-02-27T21:57:44.521Z,5.70
2019-02-27T22:00:22.078Z,5.70
2019-02-27T22:02:50.829Z,5.70
2019-02-27T22:05:19.768Z,5.70
2019-02-27T22:07:48.781Z,5.70
2019-02-27T22:10:19.681Z,5.70
2019-02-27T22:12:47.791Z,5.60
2019-02-27T22:15:24.789Z,5.60
2019-02-27T22:17:53.271Z,5.60
2019-02-27T22:20:21.730Z,5.60
2019-02-27T22:22:50.220Z,5.60
2019-02-27T22:25:18.752Z,5.60
2019-02-27T22:27:47.169Z,5.60
2019-02-27T22:30:18.185Z,5.50
2019-02-27T22:32:48.074Z,5.40
2019-02-27T22:35:16.723Z,5.40
2019-02-27T22:37:45.196Z,5.40
2019-02-27T22:40:19.591Z,5.40
2019-02-27T22:42:48.429Z,5.40
2019-02-27T22:45:18.727Z,5.30
2019-02-27T22:47:47.467Z,5.30
2019-02-27T22:50:17.513Z,5.20
2019-02-27T22:52:45.929Z,5.10
2019-02-27T22:55:14.834Z,5.10
2019-02-27T22:57:43.231Z,5.10
2019-02-27T23:00:31.556Z,5.00
2019-02-27T23:03:00.066Z,5.00
2019-02-27T23:05:28.489Z,5.00
2019-02-27T23:07:56.984Z,5.00
2019-02-27T23:10:28.160Z,4.90
2019-02-27T23:12:55.659Z,4.90
2019-02-27T23:15:24.817Z,4.90
2019-02-27T23:17:53.753Z,4.80
2019-02-27T23:20:22.174Z,4.80
2019-02-27T23:22:50.552Z,4.80
2019-02-27T23:25:18.979Z,4.70
2019-02-27T23:27:47.369Z,4.70
2019-02-27T23:30:16.152Z,4.70
2019-02-27T23:32:44.642Z,4.70
2019-02-27T23:35:15.702Z,4.70
2019-02-27T23:37:43.258Z,4.60
2019-02-27T23:40:17.001Z,4.60
2019-02-27T23:42:41.871Z,4.50
2019-02-27T23:45:11.057Z,4.50
2019-02-27T23:47:39.592Z,4.50
2019-02-27T23:50:13.267Z,4.50
2019-02-27T23:52:41.668Z,4.50
2019-02-27T23:55:10.860Z,4.50
2019-02-27T23:57:39.461Z,4.50
